sensor_id;sensor_type;location;lat;lon;timestamp;P1;durP1;ratioP1;P2;durP2;ratioP2
43606;SDS011;29197;44.788;10.366;2023-04-26T00:02:01;1.65;;;0.95;;
43606;SDS011;29197;44.788;10.366;2023-04-26T00:04:50;1.10;;;0.90;;
43606;SDS011;29197;44.788;10.366;2023-04-26T00:07:42;1.08;;;0.70;;
43606;SDS011;29197;44.788;10.366;2023-04-26T00:10:30;1.20;;;0.95;;
43606;SDS011;29197;44.788;10.366;2023-04-26T00:13:19;1.13;;;1.00;;
43606;SDS011;29197;44.788;10.366;2023-04-26T00:16:09;1.00;;;0.90;;
43606;SDS011;29197;44.788;10.366;2023-04-26T00:18:58;0.65;;;0.65;;
43606;SDS011;29197;44.788;10.366;2023-04-26T00:21:46;1.35;;;0.95;;
43606;SDS011;29197;44.788;10.366;2023-04-26T00:24:35;0.95;;;0.88;;
43606;SDS011;29197;44.788;10.366;2023-04-26T00:27:24;0.82;;;0.80;;
43606;SDS011;29197;44.788;10.366;2023-04-26T00:30:12;2.60;;;1.40;;
43606;SDS011;29197;44.788;10.366;2023-04-26T00:33:03;1.20;;;1.00;;
43606;SDS011;29197;44.788;10.366;2023-04-26T00:35:51;1.70;;;1.15;;
43606;SDS011;29197;44.788;10.366;2023-04-26T00:38:40;1.30;;;1.00;;
43606;SDS011;29197;44.788;10.366;2023-04-26T00:41:29;2.33;;;1.15;;
43606;SDS011;29197;44.788;10.366;2023-04-26T00:44:17;1.50;;;1.30;;
43606;SDS011;29197;44.788;10.366;2023-04-26T00:47:06;1.20;;;0.98;;
43606;SDS011;29197;44.788;10.366;2023-04-26T00:49:56;1.27;;;1.10;;
43606;SDS011;29197;44.788;10.366;2023-04-26T00:52:46;2.00;;;1.10;;
43606;SDS011;29197;44.788;10.366;2023-04-26T00:55:34;1.17;;;0.93;;
43606;SDS011;29197;44.788;10.366;2023-04-26T00:58:23;2.07;;;1.10;;
43606;SDS011;29197;44.788;10.366;2023-04-26T01:01:12;1.90;;;0.90;;
43606;SDS011;29197;44.788;10.366;2023-04-26T01:04:01;1.60;;;1.08;;
43606;SDS011;29197;44.788;10.366;2023-04-26T01:06:51;0.70;;;0.70;;
43606;SDS011;29197;44.788;10.366;2023-04-26T01:09:40;1.45;;;0.75;;
43606;SDS011;29197;44.788;10.366;2023-04-26T01:12:30;0.70;;;0.70;;
43606;SDS011;29197;44.788;10.366;2023-04-26T01:15:19;1.00;;;0.73;;
43606;SDS011;29197;44.788;10.366;2023-04-26T01:18:08;1.60;;;0.70;;
43606;SDS011;29197;44.788;10.366;2023-04-26T01:20:57;1.23;;;1.00;;
43606;SDS011;29197;44.788;10.366;2023-04-26T01:23:50;1.10;;;0.85;;
43606;SDS011;29197;44.788;10.366;2023-04-26T01:26:39;0.98;;;0.88;;
43606;SDS011;29197;44.788;10.366;2023-04-26T01:29:31;2.15;;;0.80;;
43606;SDS011;29197;44.788;10.366;2023-04-26T01:32:20;0.75;;;0.75;;
43606;SDS011;29197;44.788;10.366;2023-04-26T01:35:09;0.95;;;0.80;;
43606;SDS011;29197;44.788;10.366;2023-04-26T01:37:57;1.13;;;0.90;;
43606;SDS011;29197;44.788;10.366;2023-04-26T01:40:47;0.80;;;0.80;;
43606;SDS011;29197;44.788;10.366;2023-04-26T01:43:36;2.08;;;1.25;;
43606;SDS011;29197;44.788;10.366;2023-04-26T01:46:25;1.10;;;1.00;;
43606;SDS011;29197;44.788;10.366;2023-04-26T01:49:13;1.10;;;1.00;;
43606;SDS011;29197;44.788;10.366;2023-04-26T01:52:02;0.75;;;0.75;;
43606;SDS011;29197;44.788;10.366;2023-04-26T01:54:51;1.30;;;0.80;;
43606;SDS011;29197;44.788;10.366;2023-04-26T01:57:41;1.10;;;1.00;;
43606;SDS011;29197;44.788;10.366;2023-04-26T02:00:29;1.10;;;0.80;;
43606;SDS011;29197;44.788;10.366;2023-04-26T02:03:19;1.08;;;0.98;;
43606;SDS011;29197;44.788;10.366;2023-04-26T02:06:08;0.88;;;0.80;;
43606;SDS011;29197;44.788;10.366;2023-04-26T02:08:56;0.80;;;0.80;;
43606;SDS011;29197;44.788;10.366;2023-04-26T02:11:45;0.82;;;0.77;;
43606;SDS011;29197;44.788;10.366;2023-04-26T02:14:35;0.93;;;0.90;;
43606;SDS011;29197;44.788;10.366;2023-04-26T02:17:24;0.95;;;0.70;;
43606;SDS011;29197;44.788;10.366;2023-04-26T02:20:13;2.05;;;1.10;;
43606;SDS011;29197;44.788;10.366;2023-04-26T02:23:02;1.40;;;1.10;;
43606;SDS011;29197;44.788;10.366;2023-04-26T02:25:50;1.35;;;0.90;;
43606;SDS011;29197;44.788;10.366;2023-04-26T02:28:39;2.10;;;1.20;;
43606;SDS011;29197;44.788;10.366;2023-04-26T02:31:29;0.73;;;0.73;;
43606;SDS011;29197;44.788;10.366;2023-04-26T02:34:18;1.27;;;0.83;;
43606;SDS011;29197;44.788;10.366;2023-04-26T02:37:07;1.00;;;0.90;;
43606;SDS011;29197;44.788;10.366;2023-04-26T02:39:55;1.10;;;1.00;;
43606;SDS011;29197;44.788;10.366;2023-04-26T02:42:44;1.17;;;0.85;;
43606;SDS011;29197;44.788;10.366;2023-04-26T02:45:32;1.10;;;1.00;;
43606;SDS011;29197;44.788;10.366;2023-04-26T02:48:22;3.43;;;1.13;;
43606;SDS011;29197;44.788;10.366;2023-04-26T02:51:11;1.10;;;0.95;;
43606;SDS011;29197;44.788;10.366;2023-04-26T02:54:00;1.00;;;0.90;;
43606;SDS011;29197;44.788;10.366;2023-04-26T02:56:51;1.70;;;1.00;;
43606;SDS011;29197;44.788;10.366;2023-04-26T02:59:41;1.00;;;0.90;;
43606;SDS011;29197;44.788;10.366;2023-04-26T03:02:30;1.92;;;0.80;;
43606;SDS011;29197;44.788;10.366;2023-04-26T03:05:20;1.58;;;1.30;;
43606;SDS011;29197;44.788;10.366;2023-04-26T03:08:09;1.90;;;0.90;;
43606;SDS011;29197;44.788;10.366;2023-04-26T03:10:57;0.90;;;0.80;;
43606;SDS011;29197;44.788;10.366;2023-04-26T03:13:46;1.77;;;1.00;;
43606;SDS011;29197;44.788;10.366;2023-04-26T03:16:39;1.83;;;1.00;;
43606;SDS011;29197;44.788;10.366;2023-04-26T03:19:29;1.90;;;0.90;;
43606;SDS011;29197;44.788;10.366;2023-04-26T03:22:19;1.50;;;0.85;;
43606;SDS011;29197;44.788;10.366;2023-04-26T03:25:08;0.70;;;0.70;;
43606;SDS011;29197;44.788;10.366;2023-04-26T03:27:57;0.63;;;0.63;;
43606;SDS011;29197;44.788;10.366;2023-04-26T03:30:46;1.20;;;0.70;;
43606;SDS011;29197;44.788;10.366;2023-04-26T03:33:35;1.23;;;1.00;;
43606;SDS011;29197;44.788;10.366;2023-04-26T03:36:24;0.90;;;0.80;;
43606;SDS011;29197;44.788;10.366;2023-04-26T03:39:15;1.63;;;0.98;;
43606;SDS011;29197;44.788;10.366;2023-04-26T03:42:04;1.05;;;0.90;;
43606;SDS011;29197;44.788;10.366;2023-04-26T03:44:52;0.87;;;0.83;;
43606;SDS011;29197;44.788;10.366;2023-04-26T03:47:41;0.65;;;0.65;;
43606;SDS011;29197;44.788;10.366;2023-04-26T03:50:30;1.70;;;1.30;;
43606;SDS011;29197;44.788;10.366;2023-04-26T03:53:18;1.40;;;0.88;;
43606;SDS011;29197;44.788;10.366;2023-04-26T03:56:08;1.05;;;0.95;;
43606;SDS011;29197;44.788;10.366;2023-04-26T03:58:56;1.52;;;0.82;;
43606;SDS011;29197;44.788;10.366;2023-04-26T04:01:45;1.63;;;1.15;;
43606;SDS011;29197;44.788;10.366;2023-04-26T04:04:34;0.80;;;0.80;;
43606;SDS011;29197;44.788;10.366;2023-04-26T04:07:23;2.42;;;1.08;;
43606;SDS011;29197;44.788;10.366;2023-04-26T04:10:11;2.53;;;1.10;;
43606;SDS011;29197;44.788;10.366;2023-04-26T04:13:01;1.90;;;1.10;;
43606;SDS011;29197;44.788;10.366;2023-04-26T04:15:50;1.15;;;0.98;;
43606;SDS011;29197;44.788;10.366;2023-04-26T04:18:38;1.00;;;0.80;;
43606;SDS011;29197;44.788;10.366;2023-04-26T04:21:27;1.58;;;1.00;;
43606;SDS011;29197;44.788;10.366;2023-04-26T04:24:16;1.60;;;0.97;;
43606;SDS011;29197;44.788;10.366;2023-04-26T04:27:05;2.80;;;0.93;;
43606;SDS011;29197;44.788;10.366;2023-04-26T04:29:55;2.30;;;0.80;;
43606;SDS011;29197;44.788;10.366;2023-04-26T04:32:44;1.30;;;1.00;;
43606;SDS011;29197;44.788;10.366;2023-04-26T04:35:33;1.00;;;0.90;;
43606;SDS011;29197;44.788;10.366;2023-04-26T04:38:21;2.00;;;0.90;;
43606;SDS011;29197;44.788;10.366;2023-04-26T04:41:10;3.07;;;1.13;;
43606;SDS011;29197;44.788;10.366;2023-04-26T04:43:58;2.55;;;1.08;;
43606;SDS011;29197;44.788;10.366;2023-04-26T04:46:48;2.75;;;1.00;;
43606;SDS011;29197;44.788;10.366;2023-04-26T04:49:38;2.35;;;1.10;;
43606;SDS011;29197;44.788;10.366;2023-04-26T04:52:26;1.30;;;1.00;;
43606;SDS011;29197;44.788;10.366;2023-04-26T04:55:15;0.98;;;0.70;;
43606;SDS011;29197;44.788;10.366;2023-04-26T04:58:03;1.63;;;1.07;;
43606;SDS011;29197;44.788;10.366;2023-04-26T05:00:52;2.00;;;1.30;;
43606;SDS011;29197;44.788;10.366;2023-04-26T05:03:42;1.92;;;1.10;;
43606;SDS011;29197;44.788;10.366;2023-04-26T05:06:31;2.35;;;1.15;;
43606;SDS011;29197;44.788;10.366;2023-04-26T05:09:20;2.00;;;1.03;;
43606;SDS011;29197;44.788;10.366;2023-04-26T05:12:09;1.48;;;1.10;;
43606;SDS011;29197;44.788;10.366;2023-04-26T05:14:57;1.27;;;1.00;;
43606;SDS011;29197;44.788;10.366;2023-04-26T05:17:46;1.70;;;1.00;;
43606;SDS011;29197;44.788;10.366;2023-04-26T05:20:36;1.48;;;1.00;;
43606;SDS011;29197;44.788;10.366;2023-04-26T05:23:25;2.40;;;0.90;;
43606;SDS011;29197;44.788;10.366;2023-04-26T05:26:14;2.05;;;0.93;;
43606;SDS011;29197;44.788;10.366;2023-04-26T05:29:03;2.25;;;1.05;;
43606;SDS011;29197;44.788;10.366;2023-04-26T05:31:51;1.52;;;0.82;;
43606;SDS011;29197;44.788;10.366;2023-04-26T05:34:40;1.90;;;1.10;;
43606;SDS011;29197;44.788;10.366;2023-04-26T05:37:30;2.30;;;1.10;;
43606;SDS011;29197;44.788;10.366;2023-04-26T05:40:18;1.90;;;1.50;;
43606;SDS011;29197;44.788;10.366;2023-04-26T05:43:07;1.70;;;1.10;;
43606;SDS011;29197;44.788;10.366;2023-04-26T05:45:56;1.45;;;1.25;;
43606;SDS011;29197;44.788;10.366;2023-04-26T05:48:44;1.20;;;0.88;;
43606;SDS011;29197;44.788;10.366;2023-04-26T05:51:33;1.67;;;1.10;;
43606;SDS011;29197;44.788;10.366;2023-04-26T05:54:23;2.60;;;1.30;;
43606;SDS011;29197;44.788;10.366;2023-04-26T05:57:11;2.17;;;1.35;;
43606;SDS011;29197;44.788;10.366;2023-04-26T06:00:00;2.00;;;1.13;;
43606;SDS011;29197;44.788;10.366;2023-04-26T06:02:50;2.77;;;1.50;;
43606;SDS011;29197;44.788;10.366;2023-04-26T06:05:40;2.90;;;1.40;;
43606;SDS011;29197;44.788;10.366;2023-04-26T06:08:28;2.00;;;1.20;;
43606;SDS011;29197;44.788;10.366;2023-04-26T06:11:18;1.75;;;1.40;;
43606;SDS011;29197;44.788;10.366;2023-04-26T06:14:07;2.40;;;1.50;;
43606;SDS011;29197;44.788;10.366;2023-04-26T06:17:14;2.10;;;1.33;;
43606;SDS011;29197;44.788;10.366;2023-04-26T06:20:03;1.88;;;1.73;;
43606;SDS011;29197;44.788;10.366;2023-04-26T06:22:52;1.70;;;1.40;;
43606;SDS011;29197;44.788;10.366;2023-04-26T06:25:41;2.85;;;1.60;;
43606;SDS011;29197;44.788;10.366;2023-04-26T06:28:32;2.67;;;1.80;;
43606;SDS011;29197;44.788;10.366;2023-04-26T06:31:21;1.83;;;1.40;;
43606;SDS011;29197;44.788;10.366;2023-04-26T06:34:09;2.30;;;2.00;;
43606;SDS011;29197;44.788;10.366;2023-04-26T06:36:58;1.60;;;1.48;;
43606;SDS011;29197;44.788;10.366;2023-04-26T06:39:47;2.90;;;1.27;;
43606;SDS011;29197;44.788;10.366;2023-04-26T06:42:35;1.58;;;1.45;;
43606;SDS011;29197;44.788;10.366;2023-04-26T06:45:25;4.03;;;1.98;;
43606;SDS011;29197;44.788;10.366;2023-04-26T06:48:13;2.40;;;1.60;;
43606;SDS011;29197;44.788;10.366;2023-04-26T06:51:05;7.97;;;2.40;;
43606;SDS011;29197;44.788;10.366;2023-04-26T06:53:54;1.83;;;1.60;;
43606;SDS011;29197;44.788;10.366;2023-04-26T06:56:44;3.92;;;2.40;;
43606;SDS011;29197;44.788;10.366;2023-04-26T06:59:33;1.60;;;1.50;;
43606;SDS011;29197;44.788;10.366;2023-04-26T07:02:23;3.15;;;1.60;;
43606;SDS011;29197;44.788;10.366;2023-04-26T07:05:12;1.70;;;1.60;;
43606;SDS011;29197;44.788;10.366;2023-04-26T07:08:01;1.50;;;1.40;;
43606;SDS011;29197;44.788;10.366;2023-04-26T07:10:52;1.70;;;1.60;;
43606;SDS011;29197;44.788;10.366;2023-04-26T07:13:41;1.70;;;1.60;;
43606;SDS011;29197;44.788;10.366;2023-04-26T07:16:30;3.05;;;2.25;;
43606;SDS011;29197;44.788;10.366;2023-04-26T07:19:20;2.35;;;1.30;;
43606;SDS011;29197;44.788;10.366;2023-04-26T07:22:09;1.73;;;1.30;;
43606;SDS011;29197;44.788;10.366;2023-04-26T07:24:58;1.50;;;1.40;;
43606;SDS011;29197;44.788;10.366;2023-04-26T07:27:47;1.88;;;1.65;;
43606;SDS011;29197;44.788;10.366;2023-04-26T07:30:37;1.60;;;1.50;;
43606;SDS011;29197;44.788;10.366;2023-04-26T07:33:26;1.95;;;1.50;;
43606;SDS011;29197;44.788;10.366;2023-04-26T07:36:16;3.05;;;1.90;;
43606;SDS011;29197;44.788;10.366;2023-04-26T07:39:05;2.70;;;1.80;;
43606;SDS011;29197;44.788;10.366;2023-04-26T07:41:55;3.28;;;1.92;;
43606;SDS011;29197;44.788;10.366;2023-04-26T07:44:44;1.50;;;1.40;;
43606;SDS011;29197;44.788;10.366;2023-04-26T07:47:35;2.85;;;1.77;;
43606;SDS011;29197;44.788;10.366;2023-04-26T07:50:24;3.28;;;1.90;;
43606;SDS011;29197;44.788;10.366;2023-04-26T07:53:14;2.45;;;1.80;;
43606;SDS011;29197;44.788;10.366;2023-04-26T07:56:03;1.80;;;1.40;;
43606;SDS011;29197;44.788;10.366;2023-04-26T07:58:53;3.03;;;2.00;;
43606;SDS011;29197;44.788;10.366;2023-04-26T08:01:41;2.20;;;1.47;;
43606;SDS011;29197;44.788;10.366;2023-04-26T08:04:30;3.13;;;2.70;;
43606;SDS011;29197;44.788;10.366;2023-04-26T08:07:20;5.60;;;2.90;;
43606;SDS011;29197;44.788;10.366;2023-04-26T08:10:11;1.88;;;1.70;;
43606;SDS011;29197;44.788;10.366;2023-04-26T08:12:59;2.63;;;2.20;;
43606;SDS011;29197;44.788;10.366;2023-04-26T08:15:49;4.50;;;2.55;;
43606;SDS011;29197;44.788;10.366;2023-04-26T08:18:37;3.45;;;2.10;;
43606;SDS011;29197;44.788;10.366;2023-04-26T08:21:26;2.33;;;2.05;;
43606;SDS011;29197;44.788;10.366;2023-04-26T08:24:15;5.00;;;2.10;;
43606;SDS011;29197;44.788;10.366;2023-04-26T08:27:05;2.78;;;2.20;;
43606;SDS011;29197;44.788;10.366;2023-04-26T08:29:53;1.73;;;1.60;;
43606;SDS011;29197;44.788;10.366;2023-04-26T08:32:41;1.87;;;1.60;;
43606;SDS011;29197;44.788;10.366;2023-04-26T08:35:31;2.70;;;1.80;;
43606;SDS011;29197;44.788;10.366;2023-04-26T08:38:20;2.47;;;1.87;;
43606;SDS011;29197;44.788;10.366;2023-04-26T08:41:10;3.38;;;2.00;;
43606;SDS011;29197;44.788;10.366;2023-04-26T08:44:02;3.17;;;2.00;;
43606;SDS011;29197;44.788;10.366;2023-04-26T08:46:56;3.60;;;2.10;;
43606;SDS011;29197;44.788;10.366;2023-04-26T08:49:53;1.63;;;1.42;;
43606;SDS011;29197;44.788;10.366;2023-04-26T08:52:46;2.35;;;1.65;;
43606;SDS011;29197;44.788;10.366;2023-04-26T08:55:37;2.80;;;1.75;;
43606;SDS011;29197;44.788;10.366;2023-04-26T08:58:26;1.95;;;1.60;;
43606;SDS011;29197;44.788;10.366;2023-04-26T09:01:17;5.03;;;2.35;;
43606;SDS011;29197;44.788;10.366;2023-04-26T09:04:07;3.58;;;2.30;;
43606;SDS011;29197;44.788;10.366;2023-04-26T09:06:57;2.80;;;2.50;;
43606;SDS011;29197;44.788;10.366;2023-04-26T09:09:48;2.72;;;2.25;;
43606;SDS011;29197;44.788;10.366;2023-04-26T09:12:37;3.40;;;2.35;;
43606;SDS011;29197;44.788;10.366;2023-04-26T09:15:26;3.67;;;2.40;;
43606;SDS011;29197;44.788;10.366;2023-04-26T09:18:17;4.32;;;2.28;;
43606;SDS011;29197;44.788;10.366;2023-04-26T09:21:07;3.08;;;2.10;;
43606;SDS011;29197;44.788;10.366;2023-04-26T09:23:56;2.33;;;1.60;;
43606;SDS011;29197;44.788;10.366;2023-04-26T09:26:44;2.87;;;2.03;;
43606;SDS011;29197;44.788;10.366;2023-04-26T09:29:33;2.33;;;2.00;;
43606;SDS011;29197;44.788;10.366;2023-04-26T09:32:22;1.67;;;1.23;;
43606;SDS011;29197;44.788;10.366;2023-04-26T09:35:26;1.77;;;1.27;;
43606;SDS011;29197;44.788;10.366;2023-04-26T09:38:15;1.70;;;1.10;;
43606;SDS011;29197;44.788;10.366;2023-04-26T09:41:05;2.03;;;1.63;;
43606;SDS011;29197;44.788;10.366;2023-04-26T09:43:53;2.90;;;2.00;;
43606;SDS011;29197;44.788;10.366;2023-04-26T09:46:42;3.45;;;2.33;;
43606;SDS011;29197;44.788;10.366;2023-04-26T09:49:45;2.67;;;2.05;;
43606;SDS011;29197;44.788;10.366;2023-04-26T09:52:43;2.17;;;1.80;;
43606;SDS011;29197;44.788;10.366;2023-04-26T09:55:32;2.03;;;1.80;;
43606;SDS011;29197;44.788;10.366;2023-04-26T09:58:21;1.45;;;1.30;;
43606;SDS011;29197;44.788;10.366;2023-04-26T10:01:10;1.45;;;1.25;;
43606;SDS011;29197;44.788;10.366;2023-04-26T10:04:00;3.60;;;2.10;;
43606;SDS011;29197;44.788;10.366;2023-04-26T10:06:50;3.33;;;2.65;;
43606;SDS011;29197;44.788;10.366;2023-04-26T10:09:40;3.72;;;2.10;;
43606;SDS011;29197;44.788;10.366;2023-04-26T10:12:29;1.90;;;1.48;;
43606;SDS011;29197;44.788;10.366;2023-04-26T10:15:18;1.80;;;1.60;;
43606;SDS011;29197;44.788;10.366;2023-04-26T10:18:07;2.28;;;1.75;;
43606;SDS011;29197;44.788;10.366;2023-04-26T10:20:56;2.70;;;2.10;;
43606;SDS011;29197;44.788;10.366;2023-04-26T10:23:51;2.72;;;2.00;;
43606;SDS011;29197;44.788;10.366;2023-04-26T10:26:48;3.92;;;2.50;;
43606;SDS011;29197;44.788;10.366;2023-04-26T10:39:19;1.90;;;1.70;;
43606;SDS011;29197;44.788;10.366;2023-04-26T10:42:20;5.32;;;2.75;;
43606;SDS011;29197;44.788;10.366;2023-04-26T10:45:25;4.03;;;3.15;;
43606;SDS011;29197;44.788;10.366;2023-04-26T10:48:16;3.10;;;2.22;;
43606;SDS011;29197;44.788;10.366;2023-04-26T10:51:06;3.13;;;2.20;;
43606;SDS011;29197;44.788;10.366;2023-04-26T10:53:57;2.47;;;1.95;;
43606;SDS011;29197;44.788;10.366;2023-04-26T10:56:50;2.25;;;2.05;;
43606;SDS011;29197;44.788;10.366;2023-04-26T10:59:40;3.78;;;2.63;;
43606;SDS011;29197;44.788;10.366;2023-04-26T11:03:09;3.40;;;2.90;;
43606;SDS011;29197;44.788;10.366;2023-04-26T11:05:58;2.55;;;2.03;;
43606;SDS011;29197;44.788;10.366;2023-04-26T11:08:47;4.07;;;2.70;;
43606;SDS011;29197;44.788;10.366;2023-04-26T11:11:36;2.72;;;1.77;;
43606;SDS011;29197;44.788;10.366;2023-04-26T11:14:41;3.15;;;2.15;;
43606;SDS011;29197;44.788;10.366;2023-04-26T11:17:35;3.70;;;2.70;;
43606;SDS011;29197;44.788;10.366;2023-04-26T11:20:27;3.95;;;2.55;;
43606;SDS011;29197;44.788;10.366;2023-04-26T11:23:17;4.07;;;2.83;;
43606;SDS011;29197;44.788;10.366;2023-04-26T11:26:07;3.10;;;2.17;;
43606;SDS011;29197;44.788;10.366;2023-04-26T11:28:56;4.20;;;2.80;;
43606;SDS011;29197;44.788;10.366;2023-04-26T11:31:51;2.60;;;2.08;;
43606;SDS011;29197;44.788;10.366;2023-04-26T11:34:40;2.23;;;1.80;;
43606;SDS011;29197;44.788;10.366;2023-04-26T11:37:29;2.28;;;1.73;;
43606;SDS011;29197;44.788;10.366;2023-04-26T11:40:18;2.70;;;2.08;;
43606;SDS011;29197;44.788;10.366;2023-04-26T11:43:07;3.50;;;2.47;;
43606;SDS011;29197;44.788;10.366;2023-04-26T11:45:57;3.13;;;2.30;;
43606;SDS011;29197;44.788;10.366;2023-04-26T11:48:48;2.70;;;1.77;;
43606;SDS011;29197;44.788;10.366;2023-04-26T11:51:37;3.13;;;2.33;;
43606;SDS011;29197;44.788;10.366;2023-04-26T11:54:27;3.25;;;2.08;;
43606;SDS011;29197;44.788;10.366;2023-04-26T11:57:17;3.10;;;2.33;;
43606;SDS011;29197;44.788;10.366;2023-04-26T12:00:07;2.63;;;2.17;;
43606;SDS011;29197;44.788;10.366;2023-04-26T12:03:03;2.67;;;2.10;;
43606;SDS011;29197;44.788;10.366;2023-04-26T12:05:54;3.83;;;2.67;;
43606;SDS011;29197;44.788;10.366;2023-04-26T12:08:47;3.22;;;2.30;;
43606;SDS011;29197;44.788;10.366;2023-04-26T12:11:37;2.30;;;1.70;;
43606;SDS011;29197;44.788;10.366;2023-04-26T12:14:29;4.03;;;2.30;;
43606;SDS011;29197;44.788;10.366;2023-04-26T12:17:18;2.90;;;1.60;;
43606;SDS011;29197;44.788;10.366;2023-04-26T12:20:08;3.58;;;2.20;;
43606;SDS011;29197;44.788;10.366;2023-04-26T12:22:59;2.30;;;1.38;;
43606;SDS011;29197;44.788;10.366;2023-04-26T12:25:50;2.27;;;1.50;;
43606;SDS011;29197;44.788;10.366;2023-04-26T12:28:40;1.57;;;1.30;;
43606;SDS011;29197;44.788;10.366;2023-04-26T12:31:29;2.25;;;1.65;;
43606;SDS011;29197;44.788;10.366;2023-04-26T12:34:18;2.88;;;1.58;;
43606;SDS011;29197;44.788;10.366;2023-04-26T12:37:06;3.53;;;2.10;;
43606;SDS011;29197;44.788;10.366;2023-04-26T12:39:57;2.80;;;2.00;;
43606;SDS011;29197;44.788;10.366;2023-04-26T12:42:46;2.70;;;1.70;;
43606;SDS011;29197;44.788;10.366;2023-04-26T12:45:36;4.07;;;1.77;;
43606;SDS011;29197;44.788;10.366;2023-04-26T12:48:25;3.17;;;1.63;;
43606;SDS011;29197;44.788;10.366;2023-04-26T12:51:17;2.33;;;1.50;;
43606;SDS011;29197;44.788;10.366;2023-04-26T12:54:06;2.60;;;1.40;;
43606;SDS011;29197;44.788;10.366;2023-04-26T12:56:56;1.10;;;1.00;;
43606;SDS011;29197;44.788;10.366;2023-04-26T12:59:45;1.25;;;0.90;;
43606;SDS011;29197;44.788;10.366;2023-04-26T13:02:33;2.17;;;1.00;;
43606;SDS011;29197;44.788;10.366;2023-04-26T13:05:23;1.75;;;0.85;;
43606;SDS011;29197;44.788;10.366;2023-04-26T13:08:11;1.88;;;1.00;;
43606;SDS011;29197;44.788;10.366;2023-04-26T13:11:01;1.23;;;0.80;;
43606;SDS011;29197;44.788;10.366;2023-04-26T13:13:51;2.17;;;1.00;;
43606;SDS011;29197;44.788;10.366;2023-04-26T13:16:40;1.15;;;0.70;;
43606;SDS011;29197;44.788;10.366;2023-04-26T13:19:29;1.17;;;0.82;;
43606;SDS011;29197;44.788;10.366;2023-04-26T13:22:18;2.30;;;1.40;;
43606;SDS011;29197;44.788;10.366;2023-04-26T13:25:07;2.20;;;0.90;;
43606;SDS011;29197;44.788;10.366;2023-04-26T13:27:56;1.02;;;0.80;;
43606;SDS011;29197;44.788;10.366;2023-04-26T13:30:46;1.00;;;0.82;;
43606;SDS011;29197;44.788;10.366;2023-04-26T13:33:35;1.05;;;0.68;;
43606;SDS011;29197;44.788;10.366;2023-04-26T13:36:24;0.80;;;0.68;;
43606;SDS011;29197;44.788;10.366;2023-04-26T13:39:13;1.17;;;0.80;;
43606;SDS011;29197;44.788;10.366;2023-04-26T13:42:02;1.60;;;0.68;;
43606;SDS011;29197;44.788;10.366;2023-04-26T13:44:51;2.70;;;0.85;;
43606;SDS011;29197;44.788;10.366;2023-04-26T13:47:41;1.40;;;1.10;;
43606;SDS011;29197;44.788;10.366;2023-04-26T13:50:30;1.25;;;1.00;;
43606;SDS011;29197;44.788;10.366;2023-04-26T13:53:19;1.30;;;0.80;;
43606;SDS011;29197;44.788;10.366;2023-04-26T13:56:08;1.87;;;1.40;;
43606;SDS011;29197;44.788;10.366;2023-04-26T13:58:57;1.05;;;0.95;;
43606;SDS011;29197;44.788;10.366;2023-04-26T14:01:47;3.20;;;1.98;;
43606;SDS011;29197;44.788;10.366;2023-04-26T14:04:40;1.10;;;0.82;;
43606;SDS011;29197;44.788;10.366;2023-04-26T14:07:29;2.22;;;1.50;;
43606;SDS011;29197;44.788;10.366;2023-04-26T14:10:18;1.07;;;0.93;;
43606;SDS011;29197;44.788;10.366;2023-04-26T14:13:07;1.40;;;0.70;;
43606;SDS011;29197;44.788;10.366;2023-04-26T14:15:57;2.17;;;1.38;;
43606;SDS011;29197;44.788;10.366;2023-04-26T14:18:46;1.20;;;0.93;;
43606;SDS011;29197;44.788;10.366;2023-04-26T14:21:36;0.93;;;0.80;;
43606;SDS011;29197;44.788;10.366;2023-04-26T14:24:25;1.80;;;1.35;;
43606;SDS011;29197;44.788;10.366;2023-04-26T14:27:14;1.50;;;1.37;;
43606;SDS011;29197;44.788;10.366;2023-04-26T14:30:03;2.35;;;1.20;;
43606;SDS011;29197;44.788;10.366;2023-04-26T14:32:52;1.08;;;0.98;;
43606;SDS011;29197;44.788;10.366;2023-04-26T14:35:41;1.33;;;1.23;;
43606;SDS011;29197;44.788;10.366;2023-04-26T14:38:31;1.20;;;0.80;;
43606;SDS011;29197;44.788;10.366;2023-04-26T14:41:20;1.30;;;0.95;;
43606;SDS011;29197;44.788;10.366;2023-04-26T14:44:09;1.38;;;0.90;;
43606;SDS011;29197;44.788;10.366;2023-04-26T14:46:58;2.90;;;1.30;;
43606;SDS011;29197;44.788;10.366;2023-04-26T14:49:47;0.80;;;0.65;;
43606;SDS011;29197;44.788;10.366;2023-04-26T14:52:35;2.00;;;1.30;;
43606;SDS011;29197;44.788;10.366;2023-04-26T14:55:26;1.60;;;1.50;;
43606;SDS011;29197;44.788;10.366;2023-04-26T14:58:15;1.80;;;1.35;;
43606;SDS011;29197;44.788;10.366;2023-04-26T15:01:07;1.95;;;1.75;;
43606;SDS011;29197;44.788;10.366;2023-04-26T15:03:56;4.40;;;1.50;;
43606;SDS011;29197;44.788;10.366;2023-04-26T15:06:47;2.33;;;1.87;;
43606;SDS011;29197;44.788;10.366;2023-04-26T15:09:36;2.63;;;2.10;;
43606;SDS011;29197;44.788;10.366;2023-04-26T15:12:26;1.30;;;1.10;;
43606;SDS011;29197;44.788;10.366;2023-04-26T15:15:15;1.77;;;1.50;;
43606;SDS011;29197;44.788;10.366;2023-04-26T15:18:04;3.03;;;2.25;;
43606;SDS011;29197;44.788;10.366;2023-04-26T15:20:52;2.40;;;1.73;;
43606;SDS011;29197;44.788;10.366;2023-04-26T15:23:41;2.72;;;1.60;;
43606;SDS011;29197;44.788;10.366;2023-04-26T15:26:30;3.80;;;1.90;;
43606;SDS011;29197;44.788;10.366;2023-04-26T15:29:21;1.80;;;1.50;;
43606;SDS011;29197;44.788;10.366;2023-04-26T15:32:10;1.15;;;1.05;;
43606;SDS011;29197;44.788;10.366;2023-04-26T15:34:59;1.58;;;1.20;;
43606;SDS011;29197;44.788;10.366;2023-04-26T15:37:47;1.55;;;1.45;;
43606;SDS011;29197;44.788;10.366;2023-04-26T15:40:39;1.88;;;1.27;;
43606;SDS011;29197;44.788;10.366;2023-04-26T15:43:27;1.38;;;1.23;;
43606;SDS011;29197;44.788;10.366;2023-04-26T15:46:17;2.20;;;2.00;;
43606;SDS011;29197;44.788;10.366;2023-04-26T15:49:06;2.95;;;1.95;;
43606;SDS011;29197;44.788;10.366;2023-04-26T15:51:55;2.67;;;2.22;;
43606;SDS011;29197;44.788;10.366;2023-04-26T15:54:43;4.43;;;2.58;;
43606;SDS011;29197;44.788;10.366;2023-04-26T15:57:32;1.98;;;1.63;;
43606;SDS011;29197;44.788;10.366;2023-04-26T16:00:21;2.85;;;2.38;;
43606;SDS011;29197;44.788;10.366;2023-04-26T16:03:11;2.90;;;2.35;;
43606;SDS011;29197;44.788;10.366;2023-04-26T16:05:59;3.75;;;2.35;;
43606;SDS011;29197;44.788;10.366;2023-04-26T16:08:48;2.60;;;2.22;;
43606;SDS011;29197;44.788;10.366;2023-04-26T16:11:36;3.22;;;2.65;;
43606;SDS011;29197;44.788;10.366;2023-04-26T16:14:25;3.80;;;3.22;;
43606;SDS011;29197;44.788;10.366;2023-04-26T16:17:14;3.85;;;3.25;;
43606;SDS011;29197;44.788;10.366;2023-04-26T16:20:04;2.78;;;2.30;;
43606;SDS011;29197;44.788;10.366;2023-04-26T16:22:54;2.97;;;2.67;;
43606;SDS011;29197;44.788;10.366;2023-04-26T16:25:43;2.53;;;1.92;;
43606;SDS011;29197;44.788;10.366;2023-04-26T16:28:32;4.07;;;2.55;;
43606;SDS011;29197;44.788;10.366;2023-04-26T16:31:20;2.95;;;2.50;;
43606;SDS011;29197;44.788;10.366;2023-04-26T16:34:09;2.45;;;1.95;;
43606;SDS011;29197;44.788;10.366;2023-04-26T16:36:59;1.87;;;1.30;;
43606;SDS011;29197;44.788;10.366;2023-04-26T16:39:48;2.22;;;1.70;;
43606;SDS011;29197;44.788;10.366;2023-04-26T16:42:41;3.05;;;2.63;;
43606;SDS011;29197;44.788;10.366;2023-04-26T16:45:30;2.53;;;2.10;;
43606;SDS011;29197;44.788;10.366;2023-04-26T16:48:18;3.97;;;3.13;;
43606;SDS011;29197;44.788;10.366;2023-04-26T16:51:07;7.05;;;4.05;;
43606;SDS011;29197;44.788;10.366;2023-04-26T16:53:57;2.60;;;2.20;;
43606;SDS011;29197;44.788;10.366;2023-04-26T16:56:46;1.50;;;1.40;;